Shafter, CA

9:08 AM PST on March 02, 2015 (GMT -0800)
Rosedale | Change Station
CLOSE
Current Station
Personal Weather Station
Location: Bakersfield, CA
Elevation: 358 ft
Nearby Weather Stations

Elev 358 ft 35.39 °N, 119.18 °W | Updated 1 second ago

Overcast
Overcast
51.5 °F
Feels Like 51.5 °F
N
0.4
Wind Variable Wind from SSW
Gusts 1.6 mph

Today
High -- | Low -- °F
--% Chance of Precip.
Yesterday
High -- | Low -- °F
Precip. -- in
6:25 AM 5:53 PM
Waxing Gibbous, 92% visible
Pressure 29.88 in
Visibility 10.0 miles
Clouds Overcast 5500 ft
Dew Point 49 °F
Humidity 91%
Rainfall 0.00 in
Snow Depth Not available.
UV 1 out of 12
Pollen 6.70 out of 12
Air Quality Not available.
Flu Activity Not available.
METAR KBFL 021654Z 12005KT 10SM OVC055 11/07 A2988 RMK AO2 SLP118 T01060072

More Conditions Fewer Conditions

Pressure 29.88 in
Visibility 10.0 miles
Clouds Overcast 5500 ft
Dew Point 49 °F
Humidity 91%
Rainfall 0.00 in
Snow Depth Not available.
UV 1 out of 12
Pollen 6.70 out of 12
Air Quality Not available.
Flu Activity Not available.
METAR KBFL 021654Z 12005KT 10SM OVC055 11/07 A2988 RMK AO2 SLP118 T01060072

More Conditions Fewer Conditions

10-Day Weather Forecast

Almanac

Astronomy

Mar. 02, 2015 Rise Set
Actual Time
Civil Twilight
Nautical Twilight
Astronomical Twilight
Moon
Length of Visible Light
Length of Day
Tomorrow will be .
, % of the Moon is Illuminated

Today's Extremes

State Highs State Lows

Community

WunderPhotos

Upload Photos

1,801,852 photos uploaded!

WunderBlogs® & News

Nearby

Air Quality

  Air Quality AQ Index Pollutant
Not available.

Snow Depth

Station Depth Elevation

Earthquake Activity

City Distance Mag. Time & Date
Minimum magnitude displayed is 2.5.

Coastal Water Temperatures

Place Temperature

Nearby Weather Stations

Areal Flood Advisory
Statement as of 7:32 AM PST on March 02, 2015

The National Weather Service in Hanford CA has issued a

* Flood Advisory for minor flooding for poor drainage areas for...
northeastern Kern County in central California...

* until 1030 am PST

* at 730 am PST... Doppler radar indicated heavy rain that will cause
minor flooding. Overflowing poor drainage areas will result in
minor flooding in the advisory area. Mud and rock slides have
already occurred in the Kern River Canyon and additional moderate
showers are moving the area.

* Some locations that will experience flooding include...
Bakersfield... Bodfish... Weldon... Breckenridge mtn... piutes and
Democrat.

Lat... Lon 3563 11818 3534 11818 3532 11884 3554 11887